createdAt,value
2018-03-29T00:00:08.067Z,5.10
2018-03-29T00:04:59.444Z,5.20
2018-03-29T00:09:50.827Z,5.30
2018-03-29T00:14:42.999Z,5.10
2018-03-29T00:19:34.428Z,5.10
2018-03-29T00:24:25.857Z,5.30
2018-03-29T00:29:17.976Z,5.40
2018-03-29T00:34:09.370Z,5.40
2018-03-29T00:39:00.773Z,5.30
2018-03-29T00:43:52.122Z,5.40
2018-03-29T00:48:43.503Z,5.40
2018-03-29T00:53:44.416Z,5.40
2018-03-29T00:58:35.787Z,5.40
2018-03-29T01:03:27.947Z,5.50
2018-03-29T01:08:20.055Z,5.40
2018-03-29T01:13:12.288Z,5.40
2018-03-29T01:18:03.691Z,5.30
2018-03-29T01:22:55.129Z,5.40
2018-03-29T01:27:46.537Z,5.40
2018-03-29T01:32:38.899Z,5.50
2018-03-29T01:37:31.482Z,5.60
2018-03-29T01:42:22.882Z,5.60
2018-03-29T01:47:15.002Z,5.40
2018-03-29T01:52:06.410Z,5.40
2018-03-29T01:56:57.798Z,5.50
2018-03-29T02:01:49.984Z,5.40
2018-03-29T02:06:41.353Z,5.30
2018-03-29T02:11:32.722Z,5.50
2018-03-29T02:16:24.100Z,5.50
2018-03-29T02:21:15.527Z,5.60
2018-03-29T02:26:06.895Z,5.50
2018-03-29T02:31:00.031Z,5.30
2018-03-29T02:35:51.433Z,5.30
2018-03-29T02:40:42.835Z,5.40
2018-03-29T02:45:34.950Z,5.50
2018-03-29T02:50:26.336Z,5.40
2018-03-29T02:55:17.720Z,5.60
2018-03-29T03:00:09.120Z,5.70
2018-03-29T03:05:00.520Z,5.80
2018-03-29T03:09:51.983Z,5.60
2018-03-29T03:14:43.414Z,5.50
2018-03-29T03:19:34.827Z,5.70
2018-03-29T03:24:26.228Z,5.50
2018-03-29T03:29:18.382Z,5.30
2018-03-29T03:34:10.541Z,5.30
2018-03-29T03:39:01.931Z,5.30
2018-03-29T03:43:53.416Z,5.40
2018-03-29T03:48:44.807Z,5.50
2018-03-29T03:53:36.906Z,5.20
2018-03-29T03:58:28.318Z,5.20
2018-03-29T04:03:19.733Z,5.10
2018-03-29T04:08:11.893Z,5.20
2018-03-29T04:13:03.281Z,5.10
2018-03-29T04:17:54.732Z,5.20
2018-03-29T04:22:46.895Z,5.30
2018-03-29T04:27:39.018Z,5.30
2018-03-29T04:32:30.392Z,5.30
2018-03-29T04:37:21.833Z,5.20
2018-03-29T04:42:13.246Z,5.20
2018-03-29T04:47:04.734Z,5.30
2018-03-29T04:51:56.140Z,5.30
2018-03-29T04:56:47.518Z,5.30
2018-03-29T05:01:39.648Z,4.90
2018-03-29T05:06:31.027Z,4.80
2018-03-29T05:11:22.404Z,4.90
2018-03-29T05:16:13.792Z,4.80
2018-03-29T05:21:05.225Z,4.80
2018-03-29T05:26:09.116Z,4.90
2018-03-29T05:31:01.250Z,5.10
2018-03-29T05:35:52.634Z,5.10
2018-03-29T05:40:44.039Z,5.20
2018-03-29T05:45:36.240Z,5.30
2018-03-29T05:50:27.729Z,5.20
2018-03-29T05:55:19.235Z,5.30
2018-03-29T06:00:10.642Z,5.40
2018-03-29T06:05:02.062Z,5.40
2018-03-29T06:09:53.430Z,5.60
2018-03-29T06:14:44.830Z,5.70
2018-03-29T06:19:36.257Z,5.60
2018-03-29T06:24:27.686Z,5.70
2018-03-29T06:29:19.065Z,5.90
2018-03-29T06:34:11.235Z,6.10
2018-03-29T06:39:02.694Z,6.10
2018-03-29T06:43:54.151Z,6.20
2018-03-29T06:48:45.543Z,6.10
2018-03-29T06:53:36.901Z,6.30
2018-03-29T06:58:28.298Z,6.40
2018-03-29T07:03:19.723Z,6.50
2018-03-29T07:08:11.118Z,6.80
2018-03-29T07:13:02.535Z,7.10
2018-03-29T07:17:53.945Z,7.10
2018-03-29T07:22:46.400Z,7.00
2018-03-29T07:27:37.902Z,7.20
2018-03-29T07:32:29.323Z,7.40
2018-03-29T07:37:21.472Z,7.40
2018-03-29T07:42:13.849Z,7.30
2018-03-29T07:47:05.487Z,7.30
2018-03-29T07:51:56.963Z,7.40
2018-03-29T07:56:48.369Z,7.40
2018-03-29T08:01:39.806Z,7.10
2018-03-29T08:06:32.049Z,7.70
2018-03-29T08:11:23.532Z,7.60
2018-03-29T08:16:15.645Z,8.10
2018-03-29T08:21:08.067Z,8.00
2018-03-29T08:25:59.486Z,8.10
2018-03-29T08:30:50.948Z,8.20
2018-03-29T08:35:42.356Z,8.40
2018-03-29T08:40:33.746Z,8.60
2018-03-29T08:45:25.145Z,8.90
2018-03-29T08:50:17.247Z,9.00
2018-03-29T08:55:09.407Z,9.30
2018-03-29T09:00:01.872Z,9.90
2018-03-29T09:04:53.321Z,9.90
2018-03-29T09:09:44.736Z,10.60
2018-03-29T09:14:36.214Z,11.80
2018-03-29T09:19:27.909Z,10.40
2018-03-29T09:24:19.353Z,10.00
2018-03-29T09:29:10.718Z,9.80
2018-03-29T09:34:02.130Z,10.00
2018-03-29T09:38:53.515Z,9.90
2018-03-29T09:43:45.641Z,11.20
2018-03-29T09:48:37.025Z,11.20
2018-03-29T09:53:28.389Z,11.90
2018-03-29T09:58:19.779Z,13.90
2018-03-29T10:03:11.270Z,14.70
2018-03-29T10:08:03.427Z,16.20
2018-03-29T10:12:55.624Z,16.10
2018-03-29T10:17:47.057Z,16.00
2018-03-29T10:22:38.470Z,15.30
2018-03-29T10:27:29.895Z,13.50
2018-03-29T10:32:21.271Z,12.90
2018-03-29T10:37:12.640Z,12.50
2018-03-29T10:42:04.786Z,12.00
2018-03-29T10:46:56.910Z,12.40
2018-03-29T10:51:48.405Z,12.40
2018-03-29T10:56:39.793Z,12.20
2018-03-29T11:01:31.956Z,11.80
2018-03-29T11:06:23.345Z,11.80
2018-03-29T11:11:14.721Z,12.20
2018-03-29T11:16:07.255Z,12.90
2018-03-29T11:20:58.672Z,13.30
2018-03-29T11:25:50.321Z,13.80
2018-03-29T11:30:42.452Z,13.40
2018-03-29T11:35:33.855Z,13.30
2018-03-29T11:40:25.261Z,14.10
2018-03-29T11:45:17.037Z,13.80
2018-03-29T11:50:08.576Z,14.00
2018-03-29T11:54:59.920Z,14.10
2018-03-29T11:59:51.342Z,13.70
2018-03-29T12:04:42.728Z,14.20
2018-03-29T12:09:34.129Z,14.50
2018-03-29T12:14:25.623Z,15.00
2018-03-29T12:19:17.648Z,15.30
2018-03-29T12:24:09.166Z,15.20
2018-03-29T12:29:00.548Z,15.50
2018-03-29T12:33:52.003Z,15.20
2018-03-29T12:38:43.381Z,12.80
2018-03-29T12:43:34.823Z,12.20
2018-03-29T12:48:26.235Z,11.20
2018-03-29T12:53:17.636Z,10.50
2018-03-29T12:58:10.712Z,10.10
2018-03-29T13:03:02.929Z,10.60
2018-03-29T13:07:54.310Z,10.60
2018-03-29T13:12:45.787Z,10.60
2018-03-29T13:17:37.191Z,10.50
2018-03-29T13:22:29.488Z,10.30
2018-03-29T13:27:20.922Z,10.70
2018-03-29T13:32:12.355Z,11.60
2018-03-29T13:37:03.745Z,12.10
2018-03-29T13:41:55.123Z,11.90
2018-03-29T13:46:46.583Z,11.40
2018-03-29T13:51:38.027Z,11.40
2018-03-29T13:56:29.439Z,11.90
2018-03-29T14:01:21.547Z,12.60
2018-03-29T14:06:12.968Z,12.50
2018-03-29T14:11:04.374Z,12.40
2018-03-29T14:15:55.769Z,12.60
2018-03-29T14:20:48.114Z,14.00
2018-03-29T14:25:40.274Z,14.80
2018-03-29T14:30:32.419Z,14.40
2018-03-29T14:35:24.578Z,14.50
2018-03-29T14:40:15.981Z,14.50
2018-03-29T14:45:08.255Z,14.10
2018-03-29T14:50:00.392Z,13.50
2018-03-29T14:54:52.515Z,13.50
2018-03-29T14:59:43.945Z,13.50
2018-03-29T15:04:35.888Z,13.30
2018-03-29T15:09:27.315Z,13.50
2018-03-29T15:14:18.702Z,13.10
2018-03-29T15:19:10.035Z,13.20
2018-03-29T15:24:01.903Z,13.20
2018-03-29T15:28:53.275Z,13.20
2018-03-29T15:33:44.655Z,13.50
2018-03-29T15:38:37.421Z,13.20
2018-03-29T15:43:28.918Z,12.90
2018-03-29T15:48:21.125Z,13.10
2018-03-29T15:53:12.576Z,13.00
2018-03-29T15:58:04.033Z,13.60
2018-03-29T16:02:56.207Z,13.10
2018-03-29T16:07:47.591Z,13.10
2018-03-29T16:12:39.029Z,12.80
2018-03-29T16:17:30.395Z,12.70
2018-03-29T16:22:21.919Z,12.20
2018-03-29T16:27:14.040Z,12.20
2018-03-29T16:32:05.436Z,12.20
2018-03-29T16:36:56.798Z,11.80
2018-03-29T16:41:48.240Z,11.90
2018-03-29T16:46:39.655Z,11.80
2018-03-29T16:51:31.051Z,11.80
2018-03-29T16:56:22.485Z,11.60
2018-03-29T17:01:13.900Z,11.40
2018-03-29T17:06:05.333Z,11.10
2018-03-29T17:10:56.712Z,10.80
2018-03-29T17:15:49.575Z,10.30
2018-03-29T17:20:41.003Z,10.30
2018-03-29T17:25:32.375Z,10.10
2018-03-29T17:30:23.738Z,10.00
2018-03-29T17:35:15.102Z,9.90
2018-03-29T17:40:06.573Z,9.70
2018-03-29T17:44:58.005Z,9.60
2018-03-29T17:49:49.395Z,9.50
2018-03-29T17:54:41.528Z,9.20
2018-03-29T17:59:32.917Z,9.20
2018-03-29T18:04:24.431Z,9.20
2018-03-29T18:09:16.618Z,8.90
2018-03-29T18:14:08.793Z,8.90
2018-03-29T18:19:00.158Z,8.90
2018-03-29T18:23:53.156Z,8.60
2018-03-29T18:28:44.577Z,8.60
2018-03-29T18:33:35.983Z,8.50
2018-03-29T18:38:27.413Z,8.40
2018-03-29T18:43:18.790Z,8.40
2018-03-29T18:48:10.191Z,8.20
2018-03-29T18:53:02.336Z,8.00
2018-03-29T18:57:54.538Z,7.90
2018-03-29T19:02:45.911Z,7.80
2018-03-29T19:07:38.046Z,7.70
2018-03-29T19:12:29.597Z,7.60
2018-03-29T19:17:21.752Z,7.60
2018-03-29T19:22:13.945Z,7.50
2018-03-29T19:27:05.486Z,7.40
2018-03-29T19:31:56.898Z,7.40
2018-03-29T19:36:48.269Z,7.40
2018-03-29T19:41:39.677Z,7.30
2018-03-29T19:46:31.052Z,7.30
2018-03-29T19:51:23.201Z,7.20
2018-03-29T19:56:15.358Z,7.10
2018-03-29T20:01:07.499Z,7.00
2018-03-29T20:05:59.655Z,6.90
2018-03-29T20:10:51.811Z,6.80
2018-03-29T20:15:43.302Z,6.70
2018-03-29T20:20:35.001Z,6.70
2018-03-29T20:25:26.419Z,6.70
2018-03-29T20:30:17.854Z,6.60
2018-03-29T20:35:09.234Z,6.40
2018-03-29T20:40:00.819Z,6.40
2018-03-29T20:44:52.197Z,6.30
2018-03-29T20:49:44.972Z,6.20
2018-03-29T20:54:36.438Z,6.10
2018-03-29T20:59:28.569Z,6.10
2018-03-29T21:04:20.968Z,6.00
2018-03-29T21:09:12.346Z,6.10
2018-03-29T21:14:03.780Z,6.00
2018-03-29T21:18:55.185Z,5.90
2018-03-29T21:23:46.687Z,5.80
2018-03-29T21:28:38.078Z,5.70
2018-03-29T21:33:30.282Z,5.70
2018-03-29T21:38:21.715Z,5.70
2018-03-29T21:43:13.162Z,5.60
2018-03-29T21:48:04.561Z,5.60
2018-03-29T21:52:55.979Z,5.60
2018-03-29T21:57:47.386Z,5.60
2018-03-29T22:02:39.596Z,5.60
2018-03-29T22:07:30.937Z,5.60
2018-03-29T22:12:22.352Z,5.70
2018-03-29T22:17:13.818Z,5.70
2018-03-29T22:22:05.337Z,5.70
2018-03-29T22:26:56.852Z,5.70
2018-03-29T22:31:48.219Z,5.70
2018-03-29T22:36:39.741Z,5.60
2018-03-29T22:41:31.074Z,5.60
2018-03-29T22:46:22.474Z,5.50
2018-03-29T22:51:13.877Z,5.50
2018-03-29T22:56:05.282Z,5.50
2018-03-29T23:00:57.439Z,5.50
2018-03-29T23:05:49.588Z,5.50
2018-03-29T23:10:41.784Z,5.50
2018-03-29T23:15:34.165Z,5.40
2018-03-29T23:20:26.983Z,5.40
2018-03-29T23:25:18.377Z,5.30
2018-03-29T23:30:10.610Z,5.40
2018-03-29T23:35:02.813Z,5.40
2018-03-29T23:39:54.185Z,5.40
2018-03-29T23:44:45.625Z,5.50
2018-03-29T23:49:36.994Z,5.50
2018-03-29T23:54:29.145Z,5.60
2018-03-29T23:59:20.527Z,5.50
